<?xml version="1.0" encoding="UTF-8"?><gpx xmlns="http://www.topografix.com/GPX/1/1"  creator="TraceDeTrail http://www.tracedetrail.fr" version="1.1" xmlns:xsi="http://www.w3.org/2001/XMLSchema-instance" xsi:schemaLocation="http://www.topografix.com/GPX/1/1 http://www.topografix.com/GPX/1/1/gpx.xsd "><metadata><name>Lacs Robert par l'Aiguille</name><link href="http://tracedetrail.fr/fr/trace/trace/145946"><text>methode de calcul : astergdem </text></link></metadata><trk><name>Lacs Robert par l'Aiguille sur TraceDeTrail.fr</name><trkseg><trkpt lat="45.12567" lon="5.87893"><ele>1672</ele><time>2000-01-01T00:55:44.000Z</time></trkpt><trkpt lat="45.12591" lon="5.8792"><ele>1672</ele><time>2000-01-01T00:55:54.000Z</time></trkpt><trkpt lat="45.12631" lon="5.87966"><ele>1681</ele><time>2000-01-01T00:56:04.000Z</time></trkpt><trkpt lat="45.12648" lon="5.8799"><ele>1686</ele><time>2000-01-01T00:56:14.000Z</time></trkpt><trkpt lat="45.12659" lon="5.87995"><time>2000-01-01T00:56:24.000Z</time></trkpt><trkpt lat="45.12674" lon="5.8799"><ele>1691</ele><time>2000-01-01T00:56:34.000Z</time></trkpt><trkpt lat="45.12691" lon="5.87999"><time>2000-01-01T00:56:44.000Z</time></trkpt><trkpt lat="45.12721" lon="5.88018"><ele>1701</ele><time>2000-01-01T00:56:54.000Z</time></trkpt><trkpt lat="45.1273" lon="5.88027"><time>2000-01-01T00:57:04.000Z</time></trkpt><trkpt lat="45.1274" lon="5.88039"><ele>1712</ele><time>2000-01-01T00:57:14.000Z</time></trkpt><trkpt lat="45.12754" lon="5.88051"><time>2000-01-01T00:57:24.000Z</time></trkpt><trkpt lat="45.12765" lon="5.88074"><ele>1726</ele><time>2000-01-01T00:57:34.000Z</time></trkpt><trkpt lat="45.12776" lon="5.88089"><time>2000-01-01T00:57:44.000Z</time></trkpt><trkpt lat="45.12781" lon="5.88099"><ele>1731</ele><time>2000-01-01T00:57:54.000Z</time></trkpt><trkpt lat="45.12789" lon="5.88124"><time>2000-01-01T00:58:04.000Z</time></trkpt><trkpt lat="45.12793" lon="5.88131"><ele>1741</ele><time>2000-01-01T00:58:14.000Z</time></trkpt><trkpt lat="45.12801" lon="5.88135"><time>2000-01-01T00:58:24.000Z</time></trkpt><trkpt lat="45.12805" lon="5.88153"><ele>1741</ele><time>2000-01-01T00:58:34.000Z</time></trkpt><trkpt lat="45.12809" lon="5.88176"><time>2000-01-01T00:58:44.000Z</time></trkpt><trkpt lat="45.12844" lon="5.88223"><ele>1754</ele><time>2000-01-01T00:58:54.000Z</time></trkpt><trkpt lat="45.12864" lon="5.88251"><ele>1768</ele><time>2000-01-01T00:59:04.000Z</time></trkpt><trkpt lat="45.12866" lon="5.88275"><time>2000-01-01T00:59:14.000Z</time></trkpt><trkpt lat="45.12873" lon="5.88301"><ele>1773</ele><time>2000-01-01T00:59:24.000Z</time></trkpt><trkpt lat="45.12869" lon="5.88319"><time>2000-01-01T00:59:34.000Z</time></trkpt><trkpt lat="45.12875" lon="5.8833"><ele>1778</ele><time>2000-01-01T00:59:44.000Z</time></trkpt><trkpt lat="45.12892" lon="5.88361"><ele>1781</ele><time>2000-01-01T00:59:54.000Z</time></trkpt><trkpt lat="45.12903" lon="5.88374"><time>2000-01-01T01:00:04.000Z</time></trkpt><trkpt lat="45.12913" lon="5.88392"><ele>1793</ele><time>2000-01-01T01:00:14.000Z</time></trkpt><trkpt lat="45.12921" lon="5.88416"><ele>1798</ele><time>2000-01-01T01:00:24.000Z</time></trkpt><trkpt lat="45.12925" lon="5.88436"><time>2000-01-01T01:00:34.000Z</time></trkpt><trkpt lat="45.12927" lon="5.88461"><ele>1808</ele><time>2000-01-01T01:00:44.000Z</time></trkpt><trkpt lat="45.1295" lon="5.88485"><ele>1810</ele><time>2000-01-01T01:00:54.000Z</time></trkpt><trkpt lat="45.12958" lon="5.885"><time>2000-01-01T01:01:04.000Z</time></trkpt><trkpt lat="45.12968" lon="5.88529"><ele>1811</ele><time>2000-01-01T01:01:14.000Z</time></trkpt><trkpt lat="45.12978" lon="5.88545"><time>2000-01-01T01:01:24.000Z</time></trkpt><trkpt lat="45.12987" lon="5.88572"><ele>1801</ele><time>2000-01-01T01:01:34.000Z</time></trkpt><trkpt lat="45.13001" lon="5.88632"><ele>1791</ele><time>2000-01-01T01:01:44.000Z</time></trkpt><trkpt lat="45.13002" lon="5.88657"><time>2000-01-01T01:01:54.000Z</time></trkpt><trkpt lat="45.13002" lon="5.8867"><ele>1790</ele><time>2000-01-01T01:02:04.000Z</time></trkpt><trkpt lat="45.13006" lon="5.88678"><time>2000-01-01T01:02:14.000Z</time></trkpt><trkpt lat="45.13008" lon="5.88694"><time>2000-01-01T01:02:24.000Z</time></trkpt><trkpt lat="45.1301" lon="5.88711"><ele>1782</ele><time>2000-01-01T01:02:34.000Z</time></trkpt><trkpt lat="45.12993" lon="5.88731"><ele>1782</ele><time>2000-01-01T01:02:44.000Z</time></trkpt><trkpt lat="45.12977" lon="5.88757"><ele>1786</ele><time>2000-01-01T01:02:54.000Z</time></trkpt><trkpt lat="45.12965" lon="5.88779"><ele>1791</ele><time>2000-01-01T01:03:04.000Z</time></trkpt><trkpt lat="45.12957" lon="5.88814"><ele>1790</ele><time>2000-01-01T01:03:14.000Z</time></trkpt><trkpt lat="45.12952" lon="5.88842"><ele>1790</ele><time>2000-01-01T01:03:24.000Z</time></trkpt><trkpt lat="45.12959" lon="5.88855"><time>2000-01-01T01:03:34.000Z</time></trkpt><trkpt lat="45.12964" lon="5.8887"><ele>1766</ele><time>2000-01-01T01:03:44.000Z</time></trkpt><trkpt lat="45.12957" lon="5.88889"><time>2000-01-01T01:03:54.000Z</time></trkpt><trkpt lat="45.12949" lon="5.88926"><ele>1766</ele><time>2000-01-01T01:04:04.000Z</time></trkpt><trkpt lat="45.1295" lon="5.88948"><time>2000-01-01T01:04:14.000Z</time></trkpt><trkpt lat="45.12954" lon="5.88968"><ele>1764</ele><time>2000-01-01T01:04:24.000Z</time></trkpt><trkpt lat="45.12957" lon="5.88981"><time>2000-01-01T01:04:34.000Z</time></trkpt><trkpt lat="45.12978" lon="5.88994"><ele>1763</ele><time>2000-01-01T01:04:44.000Z</time></trkpt><trkpt lat="45.12988" lon="5.89002"><time>2000-01-01T01:04:54.000Z</time></trkpt><trkpt lat="45.13004" lon="5.89026"><ele>1762</ele><time>2000-01-01T01:05:04.000Z</time></trkpt><trkpt lat="45.13023" lon="5.89041"><ele>1762</ele><time>2000-01-01T01:05:14.000Z</time></trkpt><trkpt lat="45.13041" lon="5.89049"><time>2000-01-01T01:05:24.000Z</time></trkpt><trkpt lat="45.13056" lon="5.89055"><ele>1765</ele><time>2000-01-01T01:05:34.000Z</time></trkpt><trkpt lat="45.13078" lon="5.89074"><ele>1769</ele><time>2000-01-01T01:05:44.000Z</time></trkpt><trkpt lat="45.13093" lon="5.89095"><ele>1769</ele><time>2000-01-01T01:05:54.000Z</time></trkpt><trkpt lat="45.13113" lon="5.8912"><ele>1765</ele><time>2000-01-01T01:06:04.000Z</time></trkpt><trkpt lat="45.13131" lon="5.8915"><ele>1769</ele><time>2000-01-01T01:06:14.000Z</time></trkpt><trkpt lat="45.13143" lon="5.89172"><ele>1767</ele><time>2000-01-01T01:06:24.000Z</time></trkpt><trkpt lat="45.1316" lon="5.89198"><ele>1769</ele><time>2000-01-01T01:06:34.000Z</time></trkpt><trkpt lat="45.13167" lon="5.89218"><time>2000-01-01T01:06:44.000Z</time></trkpt><trkpt lat="45.13172" lon="5.89236"><ele>1772</ele><time>2000-01-01T01:06:54.000Z</time></trkpt><trkpt lat="45.13189" lon="5.89258"><ele>1764</ele><time>2000-01-01T01:07:04.000Z</time></trkpt><trkpt lat="45.13203" lon="5.89275"><time>2000-01-01T01:07:14.000Z</time></trkpt><trkpt lat="45.13215" lon="5.89284"><ele>1756</ele><time>2000-01-01T01:07:24.000Z</time></trkpt><trkpt lat="45.13221" lon="5.89296"><time>2000-01-01T01:07:34.000Z</time></trkpt><trkpt lat="45.13253" lon="5.89339"><ele>1754</ele><time>2000-01-01T01:07:44.000Z</time></trkpt><trkpt lat="45.13276" lon="5.89372"><ele>1759</ele><time>2000-01-01T01:07:54.000Z</time></trkpt><trkpt lat="45.13287" lon="5.89387"><time>2000-01-01T01:08:04.000Z</time></trkpt><trkpt lat="45.13299" lon="5.89408"><ele>1764</ele><time>2000-01-01T01:08:14.000Z</time></trkpt><trkpt lat="45.13309" lon="5.89427"><time>2000-01-01T01:08:24.000Z</time></trkpt><trkpt lat="45.13318" lon="5.89441"><ele>1770</ele><time>2000-01-01T01:08:34.000Z</time></trkpt><trkpt lat="45.13324" lon="5.89461"><time>2000-01-01T01:08:44.000Z</time></trkpt><trkpt lat="45.1334" lon="5.89497"><ele>1777</ele><time>2000-01-01T01:08:54.000Z</time></trkpt><trkpt lat="45.1335" lon="5.8951"><time>2000-01-01T01:09:04.000Z</time></trkpt><trkpt lat="45.13371" lon="5.89529"><ele>1777</ele><time>2000-01-01T01:09:14.000Z</time></trkpt><trkpt lat="45.13379" lon="5.89543"><time>2000-01-01T01:09:24.000Z</time></trkpt><trkpt lat="45.13389" lon="5.89557"><ele>1779</ele><time>2000-01-01T01:09:34.000Z</time></trkpt><trkpt lat="45.13394" lon="5.89567"><time>2000-01-01T01:09:44.000Z</time></trkpt><trkpt lat="45.13402" lon="5.89571"><time>2000-01-01T01:09:54.000Z</time></trkpt><trkpt lat="45.1341" lon="5.89579"><ele>1781</ele><time>2000-01-01T01:10:04.000Z</time></trkpt><trkpt lat="45.13418" lon="5.89593"><time>2000-01-01T01:10:14.000Z</time></trkpt><trkpt lat="45.13424" lon="5.89609"><ele>1786</ele><time>2000-01-01T01:10:24.000Z</time></trkpt><trkpt lat="45.1343" lon="5.89617"><time>2000-01-01T01:10:34.000Z</time></trkpt><trkpt lat="45.13438" lon="5.89637"><ele>1787</ele><time>2000-01-01T01:10:44.000Z</time></trkpt><trkpt lat="45.13438" lon="5.89655"><time>2000-01-01T01:10:54.000Z</time></trkpt><trkpt lat="45.1344" lon="5.89671"><ele>1788</ele><time>2000-01-01T01:11:04.000Z</time></trkpt><trkpt lat="45.13448" lon="5.89687"><time>2000-01-01T01:11:14.000Z</time></trkpt><trkpt lat="45.13456" lon="5.8969"><ele>1792</ele><time>2000-01-01T01:11:24.000Z</time></trkpt><trkpt lat="45.1347" lon="5.89699"><time>2000-01-01T01:11:34.000Z</time></trkpt><trkpt lat="45.13476" lon="5.8972"><ele>1792</ele><time>2000-01-01T01:11:44.000Z</time></trkpt><trkpt lat="45.1348" lon="5.89732"><time>2000-01-01T01:11:54.000Z</time></trkpt><trkpt lat="45.13485" lon="5.8974"><time>2000-01-01T01:12:04.000Z</time></trkpt><trkpt lat="45.13489" lon="5.89753"><ele>1793</ele><time>2000-01-01T01:12:14.000Z</time></trkpt><trkpt lat="45.13487" lon="5.89762"><time>2000-01-01T01:12:24.000Z</time></trkpt><trkpt lat="45.13493" lon="5.8977"><time>2000-01-01T01:12:34.000Z</time></trkpt><trkpt lat="45.13504" lon="5.89798"><ele>1788</ele><time>2000-01-01T01:12:44.000Z</time></trkpt><trkpt lat="45.13513" lon="5.89813"><time>2000-01-01T01:12:54.000Z</time></trkpt><trkpt lat="45.13517" lon="5.89817"><time>2000-01-01T01:13:04.000Z</time></trkpt><trkpt lat="45.13524" lon="5.89828"><ele>1784</ele><time>2000-01-01T01:13:14.000Z</time></trkpt><trkpt lat="45.13531" lon="5.89847"><time>2000-01-01T01:13:24.000Z</time></trkpt><trkpt lat="45.13539" lon="5.89866"><ele>1781</ele><time>2000-01-01T01:13:34.000Z</time></trkpt><trkpt lat="45.13543" lon="5.89878"><time>2000-01-01T01:13:44.000Z</time></trkpt><trkpt lat="45.13548" lon="5.89883"><time>2000-01-01T01:13:54.000Z</time></trkpt><trkpt lat="45.13558" lon="5.89911"><ele>1767</ele><time>2000-01-01T01:14:04.000Z</time></trkpt><trkpt lat="45.1356" lon="5.89918"><time>2000-01-01T01:14:14.000Z</time></trkpt><trkpt lat="45.13557" lon="5.89922"><time>2000-01-01T01:14:24.000Z</time></trkpt><trkpt lat="45.13552" lon="5.89922"><time>2000-01-01T01:14:34.000Z</time></trkpt><trkpt lat="45.13549" lon="5.89933"><ele>1767</ele><time>2000-01-01T01:14:44.000Z</time></trkpt><trkpt lat="45.13542" lon="5.89936"><time>2000-01-01T01:14:54.000Z</time></trkpt><trkpt lat="45.13538" lon="5.89941"><time>2000-01-01T01:15:04.000Z</time></trkpt><trkpt lat="45.13536" lon="5.89951"><ele>1767</ele><time>2000-01-01T01:15:14.000Z</time></trkpt><trkpt lat="45.13528" lon="5.89963"><time>2000-01-01T01:15:24.000Z</time></trkpt><trkpt lat="45.13523" lon="5.8998"><ele>1765</ele><time>2000-01-01T01:15:34.000Z</time></trkpt><trkpt lat="45.13518" lon="5.89997"><time>2000-01-01T01:15:44.000Z</time></trkpt><trkpt lat="45.1352" lon="5.9001"><ele>1764</ele><time>2000-01-01T01:15:54.000Z</time></trkpt><trkpt lat="45.13511" lon="5.90038"><ele>1769</ele><time>2000-01-01T01:16:04.000Z</time></trkpt><trkpt lat="45.13508" lon="5.90055"><time>2000-01-01T01:16:14.000Z</time></trkpt><trkpt lat="45.13502" lon="5.90083"><ele>1774</ele><time>2000-01-01T01:16:24.000Z</time></trkpt><trkpt lat="45.135" lon="5.90099"><time>2000-01-01T01:16:34.000Z</time></trkpt><trkpt lat="45.13493" lon="5.90112"><ele>1781</ele><time>2000-01-01T01:16:44.000Z</time></trkpt><trkpt lat="45.13487" lon="5.90119"><time>2000-01-01T01:16:54.000Z</time></trkpt><trkpt lat="45.13483" lon="5.90139"><ele>1797</ele><time>2000-01-01T01:17:04.000Z</time></trkpt><trkpt lat="45.13481" lon="5.90151"><time>2000-01-01T01:17:14.000Z</time></trkpt><trkpt lat="45.13478" lon="5.90167"><ele>1805</ele><time>2000-01-01T01:17:24.000Z</time></trkpt><trkpt lat="45.13475" lon="5.90174"><time>2000-01-01T01:17:34.000Z</time></trkpt><trkpt lat="45.13472" lon="5.9018"><time>2000-01-01T01:17:44.000Z</time></trkpt><trkpt lat="45.13465" lon="5.9021"><ele>1806</ele><time>2000-01-01T01:17:54.000Z</time></trkpt><trkpt lat="45.13461" lon="5.90223"><time>2000-01-01T01:18:04.000Z</time></trkpt><trkpt lat="45.13459" lon="5.90235"><ele>1814</ele><time>2000-01-01T01:18:14.000Z</time></trkpt><trkpt lat="45.13455" lon="5.90249"><time>2000-01-01T01:18:24.000Z</time></trkpt><trkpt lat="45.13449" lon="5.90262"><ele>1817</ele><time>2000-01-01T01:18:34.000Z</time></trkpt><trkpt lat="45.13447" lon="5.90273"><time>2000-01-01T01:18:44.000Z</time></trkpt><trkpt lat="45.13442" lon="5.9029"><ele>1820</ele><time>2000-01-01T01:18:54.000Z</time></trkpt><trkpt lat="45.13439" lon="5.90306"><time>2000-01-01T01:19:04.000Z</time></trkpt><trkpt lat="45.13439" lon="5.90312"><time>2000-01-01T01:19:14.000Z</time></trkpt><trkpt lat="45.13437" lon="5.90316"><ele>1852</ele><time>2000-01-01T01:19:24.000Z</time></trkpt><trkpt lat="45.13435" lon="5.90322"><time>2000-01-01T01:19:34.000Z</time></trkpt><trkpt lat="45.13429" lon="5.90321"><time>2000-01-01T01:19:44.000Z</time></trkpt><trkpt lat="45.13424" lon="5.90306"><ele>1852</ele><time>2000-01-01T01:19:54.000Z</time></trkpt><trkpt lat="45.13412" lon="5.90285"><ele>1867</ele><time>2000-01-01T01:20:04.000Z</time></trkpt><trkpt lat="45.13407" lon="5.90284"><time>2000-01-01T01:20:14.000Z</time></trkpt><trkpt lat="45.13403" lon="5.90288"><time>2000-01-01T01:20:24.000Z</time></trkpt><trkpt lat="45.134" lon="5.90297"><time>2000-01-01T01:20:34.000Z</time></trkpt><trkpt lat="45.13395" lon="5.90323"><ele>1882</ele><time>2000-01-01T01:20:44.000Z</time></trkpt><trkpt lat="45.13394" lon="5.90333"><time>2000-01-01T01:20:54.000Z</time></trkpt><trkpt lat="45.13388" lon="5.9035"><ele>1882</ele><time>2000-01-01T01:21:04.000Z</time></trkpt><trkpt lat="45.13382" lon="5.90377"><ele>1886</ele><time>2000-01-01T01:21:14.000Z</time></trkpt><trkpt lat="45.13376" lon="5.90383"><time>2000-01-01T01:21:24.000Z</time></trkpt><trkpt lat="45.1337" lon="5.90397"><time>2000-01-01T01:21:34.000Z</time></trkpt><trkpt lat="45.13364" lon="5.90441"><ele>1911</ele><time>2000-01-01T01:21:44.000Z</time></trkpt><trkpt lat="45.13358" lon="5.9044"><time>2000-01-01T01:21:54.000Z</time></trkpt><trkpt lat="45.13354" lon="5.90451"><time>2000-01-01T01:22:04.000Z</time></trkpt><trkpt lat="45.13358" lon="5.90486"><ele>1911</ele><time>2000-01-01T01:22:14.000Z</time></trkpt><trkpt lat="45.13358" lon="5.90494"><time>2000-01-01T01:22:24.000Z</time></trkpt><trkpt lat="45.13354" lon="5.905"><time>2000-01-01T01:22:34.000Z</time></trkpt><trkpt lat="45.13346" lon="5.90506"><ele>1915</ele><time>2000-01-01T01:22:44.000Z</time></trkpt><trkpt lat="45.13335" lon="5.90522"><time>2000-01-01T01:22:54.000Z</time></trkpt><trkpt lat="45.13328" lon="5.90534"><ele>1919</ele><time>2000-01-01T01:23:04.000Z</time></trkpt><trkpt lat="45.13319" lon="5.90544"><time>2000-01-01T01:23:14.000Z</time></trkpt><trkpt lat="45.13313" lon="5.90549"><time>2000-01-01T01:23:24.000Z</time></trkpt><trkpt lat="45.13309" lon="5.90541"><ele>1935</ele><time>2000-01-01T01:23:34.000Z</time></trkpt><trkpt lat="45.13303" lon="5.90535"><time>2000-01-01T01:23:44.000Z</time></trkpt><trkpt lat="45.13299" lon="5.90538"><time>2000-01-01T01:23:54.000Z</time></trkpt><trkpt lat="45.13296" lon="5.9055"><ele>1959</ele><time>2000-01-01T01:24:04.000Z</time></trkpt><trkpt lat="45.13293" lon="5.90548"><time>2000-01-01T01:24:14.000Z</time></trkpt><trkpt lat="45.1329" lon="5.90541"><time>2000-01-01T01:24:24.000Z</time></trkpt><trkpt lat="45.13287" lon="5.90538"><time>2000-01-01T01:24:34.000Z</time></trkpt><trkpt lat="45.13283" lon="5.90541"><time>2000-01-01T01:24:44.000Z</time></trkpt><trkpt lat="45.13281" lon="5.90546"><ele>1958</ele><time>2000-01-01T01:24:54.000Z</time></trkpt><trkpt lat="45.13277" lon="5.90559"><time>2000-01-01T01:25:04.000Z</time></trkpt><trkpt lat="45.13274" lon="5.90584"><ele>1957</ele><time>2000-01-01T01:25:14.000Z</time></trkpt><trkpt lat="45.1328" lon="5.9059"><time>2000-01-01T01:25:24.000Z</time></trkpt><trkpt lat="45.13283" lon="5.90597"><time>2000-01-01T01:25:34.000Z</time></trkpt><trkpt lat="45.13282" lon="5.90607"><ele>1959</ele><time>2000-01-01T01:25:44.000Z</time></trkpt><trkpt lat="45.13279" lon="5.90625"><time>2000-01-01T01:25:54.000Z</time></trkpt><trkpt lat="45.13279" lon="5.90634"><ele>1961</ele><time>2000-01-01T01:26:04.000Z</time></trkpt><trkpt lat="45.13288" lon="5.9065"><time>2000-01-01T01:26:14.000Z</time></trkpt><trkpt lat="45.13293" lon="5.90683"><ele>1973</ele><time>2000-01-01T01:26:24.000Z</time></trkpt><trkpt lat="45.13308" lon="5.90711"><ele>1979</ele><time>2000-01-01T01:26:34.000Z</time></trkpt><trkpt lat="45.13311" lon="5.90731"><time>2000-01-01T01:26:44.000Z</time></trkpt><trkpt lat="45.13313" lon="5.90759"><ele>1982</ele><time>2000-01-01T01:26:54.000Z</time></trkpt><trkpt lat="45.1331" lon="5.90773"><time>2000-01-01T01:27:04.000Z</time></trkpt><trkpt lat="45.13301" lon="5.90789"><ele>1984</ele><time>2000-01-01T01:27:14.000Z</time></trkpt><trkpt lat="45.13294" lon="5.90792"><time>2000-01-01T01:27:24.000Z</time></trkpt><trkpt lat="45.13289" lon="5.90799"><time>2000-01-01T01:27:34.000Z</time></trkpt><trkpt lat="45.13284" lon="5.9081"><ele>1988</ele><time>2000-01-01T01:27:44.000Z</time></trkpt><trkpt lat="45.13273" lon="5.90817"><time>2000-01-01T01:27:54.000Z</time></trkpt><trkpt lat="45.13266" lon="5.90824"><ele>1999</ele><time>2000-01-01T01:28:04.000Z</time></trkpt><trkpt lat="45.13261" lon="5.90833"><time>2000-01-01T01:28:14.000Z</time></trkpt><trkpt lat="45.13255" lon="5.90861"><ele>2006</ele><time>2000-01-01T01:28:24.000Z</time></trkpt><trkpt lat="45.1325" lon="5.9087"><time>2000-01-01T01:28:34.000Z</time></trkpt><trkpt lat="45.1324" lon="5.90894"><ele>2014</ele><time>2000-01-01T01:28:44.000Z</time></trkpt><trkpt lat="45.13232" lon="5.90904"><time>2000-01-01T01:28:54.000Z</time></trkpt><trkpt lat="45.13224" lon="5.90921"><ele>2016</ele><time>2000-01-01T01:29:04.000Z</time></trkpt><trkpt lat="45.13219" lon="5.90939"><time>2000-01-01T01:29:14.000Z</time></trkpt><trkpt lat="45.13215" lon="5.90952"><ele>2017</ele><time>2000-01-01T01:29:24.000Z</time></trkpt><trkpt lat="45.13209" lon="5.90966"><time>2000-01-01T01:29:34.000Z</time></trkpt><trkpt lat="45.13202" lon="5.90978"><ele>2019</ele><time>2000-01-01T01:29:44.000Z</time></trkpt><trkpt lat="45.13198" lon="5.90996"><time>2000-01-01T01:29:54.000Z</time></trkpt><trkpt lat="45.13192" lon="5.9105"><ele>2022</ele><time>2000-01-01T01:30:04.000Z</time></trkpt><trkpt lat="45.13185" lon="5.91066"><time>2000-01-01T01:30:14.000Z</time></trkpt><trkpt lat="45.13184" lon="5.91088"><ele>2017</ele><time>2000-01-01T01:30:24.000Z</time></trkpt><trkpt lat="45.13179" lon="5.91107"><time>2000-01-01T01:30:34.000Z</time></trkpt><trkpt lat="45.13164" lon="5.91147"><ele>2018</ele><time>2000-01-01T01:30:44.000Z</time></trkpt><trkpt lat="45.13153" lon="5.91163"><time>2000-01-01T01:30:54.000Z</time></trkpt><trkpt lat="45.13184" lon="5.91106"><ele>2020</ele><time>2000-01-01T01:31:04.000Z</time></trkpt><trkpt lat="45.13189" lon="5.91049"><ele>2044</ele><time>2000-01-01T01:31:14.000Z</time></trkpt><trkpt lat="45.13187" lon="5.91033"><time>2000-01-01T01:31:24.000Z</time></trkpt><trkpt lat="45.13176" lon="5.91001"><ele>2046</ele><time>2000-01-01T01:31:34.000Z</time></trkpt><trkpt lat="45.13178" lon="5.90969"><ele>2048</ele><time>2000-01-01T01:31:44.000Z</time></trkpt><trkpt lat="45.13181" lon="5.90947"><time>2000-01-01T01:31:54.000Z</time></trkpt><trkpt lat="45.13185" lon="5.90929"><ele>2044</ele><time>2000-01-01T01:32:04.000Z</time></trkpt><trkpt lat="45.13185" lon="5.90917"><time>2000-01-01T01:32:14.000Z</time></trkpt><trkpt lat="45.13182" lon="5.90896"><ele>2045</ele><time>2000-01-01T01:32:24.000Z</time></trkpt><trkpt lat="45.13181" lon="5.90879"><time>2000-01-01T01:32:34.000Z</time></trkpt><trkpt lat="45.13178" lon="5.90862"><ele>2047</ele><time>2000-01-01T01:32:44.000Z</time></trkpt><trkpt lat="45.13169" lon="5.90838"><ele>2047</ele><time>2000-01-01T01:32:54.000Z</time></trkpt><trkpt lat="45.1317" lon="5.90829"><time>2000-01-01T01:33:04.000Z</time></trkpt><trkpt lat="45.13171" lon="5.90817"><time>2000-01-01T01:33:14.000Z</time></trkpt><trkpt lat="45.13168" lon="5.90805"><ele>2047</ele><time>2000-01-01T01:33:24.000Z</time></trkpt><trkpt lat="45.1316" lon="5.90786"><time>2000-01-01T01:33:34.000Z</time></trkpt><trkpt lat="45.13156" lon="5.90737"><ele>2074</ele><time>2000-01-01T01:33:44.000Z</time></trkpt><trkpt lat="45.13154" lon="5.90713"><time>2000-01-01T01:33:54.000Z</time></trkpt><trkpt lat="45.13154" lon="5.90699"><ele>2069</ele><time>2000-01-01T01:34:04.000Z</time></trkpt><trkpt lat="45.13152" lon="5.90678"><time>2000-01-01T01:34:14.000Z</time></trkpt><trkpt lat="45.13152" lon="5.90663"><ele>2065</ele><time>2000-01-01T01:34:24.000Z</time></trkpt><trkpt lat="45.13155" lon="5.9065"><time>2000-01-01T01:34:34.000Z</time></trkpt><trkpt lat="45.13161" lon="5.90637"><ele>2059</ele><time>2000-01-01T01:34:44.000Z</time></trkpt><trkpt lat="45.1316" lon="5.90622"><time>2000-01-01T01:34:54.000Z</time></trkpt><trkpt lat="45.13155" lon="5.90607"><ele>2053</ele><time>2000-01-01T01:35:04.000Z</time></trkpt><trkpt lat="45.13148" lon="5.90595"><time>2000-01-01T01:35:14.000Z</time></trkpt><trkpt lat="45.13143" lon="5.90592"><time>2000-01-01T01:35:24.000Z</time></trkpt><trkpt lat="45.13144" lon="5.90585"><ele>2041</ele><time>2000-01-01T01:35:34.000Z</time></trkpt><trkpt lat="45.13145" lon="5.90575"><time>2000-01-01T01:35:44.000Z</time></trkpt><trkpt lat="45.13142" lon="5.90557"><ele>2051</ele><time>2000-01-01T01:35:54.000Z</time></trkpt><trkpt lat="45.13135" lon="5.90549"><time>2000-01-01T01:36:04.000Z</time></trkpt><trkpt lat="45.13132" lon="5.9054"><time>2000-01-01T01:36:14.000Z</time></trkpt><trkpt lat="45.13124" lon="5.90522"><ele>2046</ele><time>2000-01-01T01:36:24.000Z</time></trkpt><trkpt lat="45.13115" lon="5.90489"><ele>2041</ele><time>2000-01-01T01:36:34.000Z</time></trkpt><trkpt lat="45.13115" lon="5.90472"><time>2000-01-01T01:36:44.000Z</time></trkpt><trkpt lat="45.13116" lon="5.90446"><ele>2036</ele><time>2000-01-01T01:36:54.000Z</time></trkpt><trkpt lat="45.13115" lon="5.90436"><time>2000-01-01T01:37:04.000Z</time></trkpt><trkpt lat="45.13105" lon="5.90417"><ele>2036</ele><time>2000-01-01T01:37:14.000Z</time></trkpt><trkpt lat="45.13099" lon="5.90393"><time>2000-01-01T01:37:24.000Z</time></trkpt><trkpt lat="45.13098" lon="5.90378"><ele>2031</ele><time>2000-01-01T01:37:34.000Z</time></trkpt><trkpt lat="45.13086" lon="5.90362"><time>2000-01-01T01:37:44.000Z</time></trkpt><trkpt lat="45.13081" lon="5.90348"><ele>2027</ele><time>2000-01-01T01:37:54.000Z</time></trkpt><trkpt lat="45.13079" lon="5.9033"><time>2000-01-01T01:38:04.000Z</time></trkpt><trkpt lat="45.13073" lon="5.90308"><ele>1996</ele><time>2000-01-01T01:38:14.000Z</time></trkpt><trkpt lat="45.13064" lon="5.9029"><time>2000-01-01T01:38:24.000Z</time></trkpt><trkpt lat="45.13046" lon="5.90267"><ele>1986</ele><time>2000-01-01T01:38:34.000Z</time></trkpt><trkpt lat="45.13028" lon="5.90239"><ele>1991</ele><time>2000-01-01T01:38:44.000Z</time></trkpt><trkpt lat="45.13003" lon="5.90205"><ele>1992</ele><time>2000-01-01T01:38:54.000Z</time></trkpt><trkpt lat="45.12999" lon="5.90176"><ele>1989</ele><time>2000-01-01T01:39:04.000Z</time></trkpt><trkpt lat="45.13" lon="5.9015"><time>2000-01-01T01:39:14.000Z</time></trkpt><trkpt lat="45.12999" lon="5.90117"><ele>1988</ele><time>2000-01-01T01:39:24.000Z</time></trkpt><trkpt lat="45.13005" lon="5.90073"><ele>1988</ele><time>2000-01-01T01:39:34.000Z</time></trkpt><trkpt lat="45.13006" lon="5.90036"><ele>1975</ele><time>2000-01-01T01:39:44.000Z</time></trkpt><trkpt lat="45.13007" lon="5.89986"><ele>1965</ele><time>2000-01-01T01:39:54.000Z</time></trkpt><trkpt lat="45.12997" lon="5.89932"><ele>1964</ele><time>2000-01-01T01:40:04.000Z</time></trkpt><trkpt lat="45.12975" lon="5.89886"><ele>1963</ele><time>2000-01-01T01:40:14.000Z</time></trkpt><trkpt lat="45.12964" lon="5.89876"><time>2000-01-01T01:40:24.000Z</time></trkpt><trkpt lat="45.12952" lon="5.89849"><ele>1967</ele><time>2000-01-01T01:40:34.000Z</time></trkpt><trkpt lat="45.12938" lon="5.8981"><ele>1966</ele><time>2000-01-01T01:40:44.000Z</time></trkpt><trkpt lat="45.12913" lon="5.89763"><ele>1967</ele><time>2000-01-01T01:40:54.000Z</time></trkpt><trkpt lat="45.12898" lon="5.89738"><ele>1966</ele><time>2000-01-01T01:41:04.000Z</time></trkpt><trkpt lat="45.12886" lon="5.89709"><ele>1966</ele><time>2000-01-01T01:41:14.000Z</time></trkpt><trkpt lat="45.12866" lon="5.89675"><ele>1963</ele><time>2000-01-01T01:41:24.000Z</time></trkpt><trkpt lat="45.12857" lon="5.89669"><time>2000-01-01T01:41:34.000Z</time></trkpt><trkpt lat="45.12848" lon="5.89641"><ele>1957</ele><time>2000-01-01T01:41:44.000Z</time></trkpt><trkpt lat="45.12841" lon="5.89612"><ele>1953</ele><time>2000-01-01T01:41:54.000Z</time></trkpt><trkpt lat="45.12832" lon="5.8959"><time>2000-01-01T01:42:04.000Z</time></trkpt><trkpt lat="45.12822" lon="5.89575"><ele>1949</ele><time>2000-01-01T01:42:14.000Z</time></trkpt><trkpt lat="45.12812" lon="5.89562"><time>2000-01-01T01:42:24.000Z</time></trkpt><trkpt lat="45.12802" lon="5.89531"><ele>1947</ele><time>2000-01-01T01:42:34.000Z</time></trkpt><trkpt lat="45.12797" lon="5.89505"><time>2000-01-01T01:42:44.000Z</time></trkpt><trkpt lat="45.12796" lon="5.89497"><ele>1946</ele><time>2000-01-01T01:42:54.000Z</time></trkpt><trkpt lat="45.12797" lon="5.89488"><time>2000-01-01T01:43:04.000Z</time></trkpt><trkpt lat="45.12793" lon="5.89472"><time>2000-01-01T01:43:14.000Z</time></trkpt><trkpt lat="45.12788" lon="5.89463"><ele>1945</ele><time>2000-01-01T01:43:24.000Z</time></trkpt><trkpt lat="45.12779" lon="5.8944"><time>2000-01-01T01:43:34.000Z</time></trkpt><trkpt lat="45.12776" lon="5.89423"><ele>1945</ele><time>2000-01-01T01:43:44.000Z</time></trkpt><trkpt lat="45.12771" lon="5.89395"><ele>1945</ele><time>2000-01-01T01:43:54.000Z</time></trkpt><trkpt lat="45.12766" lon="5.89382"><time>2000-01-01T01:44:04.000Z</time></trkpt><trkpt lat="45.12755" lon="5.89358"><ele>1940</ele><time>2000-01-01T01:44:14.000Z</time></trkpt><trkpt lat="45.12748" lon="5.8935"><time>2000-01-01T01:44:24.000Z</time></trkpt><trkpt lat="45.12742" lon="5.89337"><ele>1936</ele><time>2000-01-01T01:44:34.000Z</time></trkpt><trkpt lat="45.12729" lon="5.89327"><time>2000-01-01T01:44:44.000Z</time></trkpt><trkpt lat="45.12717" lon="5.8931"><ele>1927</ele><time>2000-01-01T01:44:54.000Z</time></trkpt><trkpt lat="45.12726" lon="5.89291"><time>2000-01-01T01:45:04.000Z</time></trkpt><trkpt lat="45.12735" lon="5.89261"><ele>1922</ele><time>2000-01-01T01:45:14.000Z</time></trkpt><trkpt lat="45.12729" lon="5.89197"><ele>1905</ele><time>2000-01-01T01:45:24.000Z</time></trkpt><trkpt lat="45.12727" lon="5.8916"><ele>1888</ele><time>2000-01-01T01:45:34.000Z</time></trkpt><trkpt lat="45.12723" lon="5.89112"><ele>1883</ele><time>2000-01-01T01:45:44.000Z</time></trkpt><trkpt lat="45.12718" lon="5.89079"><ele>1876</ele><time>2000-01-01T01:45:54.000Z</time></trkpt><trkpt lat="45.12712" lon="5.89043"><ele>1866</ele><time>2000-01-01T01:46:04.000Z</time></trkpt><trkpt lat="45.12709" lon="5.89009"><ele>1860</ele><time>2000-01-01T01:46:14.000Z</time></trkpt><trkpt lat="45.12707" lon="5.88973"><ele>1852</ele><time>2000-01-01T01:46:24.000Z</time></trkpt><trkpt lat="45.12709" lon="5.88955"><time>2000-01-01T01:46:34.000Z</time></trkpt><trkpt lat="45.12734" lon="5.88919"><ele>1836</ele><time>2000-01-01T01:46:44.000Z</time></trkpt><trkpt lat="45.12752" lon="5.88896"><ele>1832</ele><time>2000-01-01T01:46:54.000Z</time></trkpt><trkpt lat="45.12766" lon="5.88875"><ele>1828</ele><time>2000-01-01T01:47:04.000Z</time></trkpt><trkpt lat="45.12767" lon="5.88858"><time>2000-01-01T01:47:14.000Z</time></trkpt><trkpt lat="45.12761" lon="5.88823"><ele>1830</ele><time>2000-01-01T01:47:24.000Z</time></trkpt><trkpt lat="45.12748" lon="5.88783"><ele>1830</ele><time>2000-01-01T01:47:34.000Z</time></trkpt><trkpt lat="45.12739" lon="5.88749"><ele>1828</ele><time>2000-01-01T01:47:44.000Z</time></trkpt><trkpt lat="45.1273" lon="5.88712"><ele>1826</ele><time>2000-01-01T01:47:54.000Z</time></trkpt><trkpt lat="45.12721" lon="5.88683"><ele>1826</ele><time>2000-01-01T01:48:04.000Z</time></trkpt><trkpt lat="45.12717" lon="5.8863"><ele>1823</ele><time>2000-01-01T01:48:14.000Z</time></trkpt><trkpt lat="45.12729" lon="5.88581"><ele>1816</ele><time>2000-01-01T01:48:24.000Z</time></trkpt><trkpt lat="45.12748" lon="5.88539"><ele>1810</ele><time>2000-01-01T01:48:34.000Z</time></trkpt><trkpt lat="45.12753" lon="5.88533"><time>2000-01-01T01:48:44.000Z</time></trkpt><trkpt lat="45.12759" lon="5.88523"><time>2000-01-01T01:48:54.000Z</time></trkpt><trkpt lat="45.12761" lon="5.88503"><ele>1806</ele><time>2000-01-01T01:49:04.000Z</time></trkpt><trkpt lat="45.12769" lon="5.88479"><time>2000-01-01T01:49:14.000Z</time></trkpt><trkpt lat="45.12786" lon="5.88454"><ele>1794</ele><time>2000-01-01T01:49:24.000Z</time></trkpt><trkpt lat="45.12814" lon="5.8842"><ele>1788</ele><time>2000-01-01T01:49:34.000Z</time></trkpt><trkpt lat="45.12834" lon="5.88386"><ele>1785</ele><time>2000-01-01T01:49:44.000Z</time></trkpt><trkpt lat="45.12847" lon="5.88359"><ele>1781</ele><time>2000-01-01T01:49:54.000Z</time></trkpt><trkpt lat="45.12857" lon="5.88343"><time>2000-01-01T01:50:04.000Z</time></trkpt><trkpt lat="45.12861" lon="5.88331"><ele>1778</ele><time>2000-01-01T01:50:14.000Z</time></trkpt><trkpt lat="45.12867" lon="5.88316"><time>2000-01-01T01:50:24.000Z</time></trkpt><trkpt lat="45.12867" lon="5.88295"><ele>1771</ele><time>2000-01-01T01:50:34.000Z</time></trkpt><trkpt lat="45.12864" lon="5.88284"><time>2000-01-01T01:50:44.000Z</time></trkpt><trkpt lat="45.12862" lon="5.88266"><ele>1768</ele><time>2000-01-01T01:50:54.000Z</time></trkpt><trkpt lat="45.12862" lon="5.88255"><time>2000-01-01T01:51:04.000Z</time></trkpt><trkpt lat="45.12855" lon="5.88246"><time>2000-01-01T01:51:14.000Z</time></trkpt><trkpt lat="45.12808" lon="5.88182"><ele>1742</ele><time>2000-01-01T01:51:24.000Z</time></trkpt><trkpt lat="45.12797" lon="5.88139"><ele>1741</ele><time>2000-01-01T01:51:34.000Z</time></trkpt><trkpt lat="45.12789" lon="5.88134"><time>2000-01-01T01:51:44.000Z</time></trkpt><trkpt lat="45.12782" lon="5.88114"><ele>1738</ele><time>2000-01-01T01:51:54.000Z</time></trkpt><trkpt lat="45.12775" lon="5.88094"><time>2000-01-01T01:52:04.000Z</time></trkpt><trkpt lat="45.12766" lon="5.88083"><ele>1726</ele><time>2000-01-01T01:52:14.000Z</time></trkpt><trkpt lat="45.12759" lon="5.88072"><time>2000-01-01T01:52:24.000Z</time></trkpt><trkpt lat="45.12752" lon="5.88056"><ele>1714</ele><time>2000-01-01T01:52:34.000Z</time></trkpt><trkpt lat="45.12717" lon="5.88021"><ele>1702</ele><time>2000-01-01T01:52:44.000Z</time></trkpt><trkpt lat="45.12674" lon="5.87996"><ele>1691</ele><time>2000-01-01T01:52:54.000Z</time></trkpt><trkpt lat="45.12655" lon="5.88003"><ele>1686</ele><time>2000-01-01T01:53:04.000Z</time></trkpt><trkpt lat="45.12643" lon="5.87992"><time>2000-01-01T01:53:14.000Z</time></trkpt><trkpt lat="45.12635" lon="5.87979"><ele>1681</ele><time>2000-01-01T01:53:24.000Z</time></trkpt><trkpt lat="45.12603" lon="5.87943"><ele>1674</ele><time>2000-01-01T01:53:34.000Z</time></trkpt><trkpt lat="45.12583" lon="5.87919"><ele>1672</ele><time>2000-01-01T01:53:44.000Z</time></trkpt><trkpt lat="45.12559" lon="5.87889"><ele>1672</ele><time>2000-01-01T01:53:54.000Z</time></trkpt><trkpt lat="45.12567" lon="5.87893"><ele>1672</ele><time>2000-01-01T01:54:04.000Z</time></trkpt></trkseg></trk></gpx>